Time;durP1;ratioP1;P1;durP2;ratioP2;P2;SDS_P1;SDS_P2;PMS_P1;PMS_P2;Temp;Humidity;BMP_temperature;BMP_pressure;BME280_temperature;BME280_humidity;BME280_pressure;Samples;Min_cycle;Max_cycle;Signal;HPM_P1;HPM_P2
2021/03/06 00:00:26;;;;;;;5.30;1.70;;;;;;;0.70;53.69;100900.84;1744777;81;21145;-41
2021/03/06 00:02:53;;;;;;;4.08;1.50;;;;;;;0.67;53.69;100903.06;1735128;81;21150;-42
2021/03/06 00:05:25;;;;;;;3.70;1.75;;;;;;;0.64;53.45;100900.03;1740266;81;21181;-41
2021/03/06 00:07:52;;;;;;;;;;;;;;;0.62;53.73;100903.56;1743006;81;21180;-43
2021/03/06 00:10:22;;;;;;;5.53;2.05;;;;;;;0.60;53.72;100903.56;1740853;81;20182;-40
2021/03/06 00:12:50;;;;;;;3.02;1.67;;;;;;;0.56;53.87;100904.95;1742994;80;21126;-41
2021/03/06 00:15:23;;;;;;;3.47;1.25;;;;;;;0.50;53.51;100905.00;1741545;81;21597;-42
2021/03/06 00:17:51;;;;;;;3.85;1.92;;;;;;;0.45;53.88;100918.61;1740658;81;21146;-42
2021/03/06 00:20:19;;;;;;;6.45;2.70;;;;;;;0.45;54.06;100917.30;1733962;81;21157;-41
2021/03/06 00:22:47;;;;;;;6.80;2.45;;;;;;;0.43;53.81;100919.95;1740980;81;21157;-41
2021/03/06 00:25:15;;;;;;;4.35;2.17;;;;;;;0.38;53.94;100928.31;1738442;81;21166;-43
2021/03/06 00:27:43;;;;;;;3.75;1.60;;;;;;;0.37;54.42;100930.50;1742261;81;21618;-43
2021/03/06 00:30:15;;;;;;;3.10;1.70;;;;;;;0.36;54.50;100928.77;1738362;81;21130;-43
2021/03/06 00:32:43;;;;;;;3.33;2.05;;;;;;;0.37;54.38;100930.05;1742014;81;21186;-39
2021/03/06 00:35:11;;;;;;;5.30;2.02;;;;;;;0.39;54.21;100922.17;1741133;81;21560;-41
2021/03/06 00:37:39;;;;;;;4.62;1.82;;;;;;;0.36;54.25;100924.83;1743213;81;21153;-41
2021/03/06 00:40:08;;;;;;;4.45;2.02;;;;;;;0.32;54.29;100927.91;1738783;80;21131;-42
2021/03/06 00:42:36;;;;;;;4.67;2.02;;;;;;;0.28;54.31;100930.16;1737191;81;21185;-42
2021/03/06 00:45:05;;;;;;;4.12;1.60;;;;;;;0.26;54.45;100931.91;1722439;82;21156;-42
2021/03/06 00:47:33;;;;;;;3.70;1.87;;;;;;;0.26;54.35;100926.67;1719886;82;21153;-42
2021/03/06 00:50:01;;;;;;;4.22;1.95;;;;;;;0.24;53.51;100928.43;1717945;82;21163;-43
2021/03/06 00:52:29;;;;;;;4.67;1.92;;;;;;;0.21;53.98;100936.33;1718155;82;21149;-44
2021/03/06 00:54:57;;;;;;;3.55;1.62;;;;;;;0.19;53.36;100927.60;1698539;82;21127;-44
2021/03/06 00:57:25;;;;;;;4.67;1.75;;;;;;;0.14;52.91;100932.02;1720438;82;21984;-45
2021/03/06 00:59:53;;;;;;;4.70;1.77;;;;;;;0.11;52.72;100936.84;1718011;82;21188;-41
2021/03/06 01:02:22;;;;;;;5.35;1.77;;;;;;;0.09;52.23;100926.80;1718128;82;21142;-41
2021/03/06 01:04:50;;;;;;;5.83;2.35;;;;;;;0.06;51.76;100932.53;1724178;82;21119;-41
2021/03/06 01:07:18;;;;;;;3.22;1.47;;;;;;;0.04;51.89;100925.11;1719565;82;21143;-41
2021/03/06 01:09:46;;;;;;;2.67;1.42;;;;;;;0.01;51.80;100925.14;1720070;82;21149;-42
2021/03/06 01:12:14;;;;;;;5.12;2.08;;;;;;;-0.02;52.09;100933.91;1718994;82;21133;-43
2021/03/06 01:14:41;;;;;;;4.20;1.45;;;;;;;0.00;51.84;100933.45;1722338;82;21123;-42
2021/03/06 01:17:09;;;;;;;4.12;2.12;;;;;;;-0.02;51.52;100932.59;1720241;82;21161;-44
2021/03/06 01:19:36;;;;;;;3.87;1.60;;;;;;;-0.07;51.45;100938.31;1721098;82;21177;-43
2021/03/06 01:22:04;;;;;;;7.20;2.12;;;;;;;-0.11;50.57;100931.34;1718671;82;21165;-43
2021/03/06 01:24:33;;;;;;;3.90;1.90;;;;;;;-0.17;50.59;100936.64;1721367;82;21118;-43
2021/03/06 01:27:01;;;;;;;6.05;2.02;;;;;;;-0.25;50.31;100931.02;1718749;82;21154;-43
2021/03/06 01:29:29;;;;;;;2.85;1.45;;;;;;;-0.30;50.68;100938.04;1722309;82;21141;-42
2021/03/06 01:31:57;;;;;;;5.33;1.87;;;;;;;-0.33;50.57;100944.62;1716528;82;21148;-43
2021/03/06 01:34:25;;;;;;;4.05;1.55;;;;;;;-0.34;50.59;100953.79;1721257;82;21127;-43
2021/03/06 01:36:55;;;;;;;4.50;1.80;;;;;;;-0.40;50.22;100946.84;1718028;82;21143;-42
2021/03/06 01:39:23;;;;;;;3.90;1.50;;;;;;;-0.44;50.38;100943.35;1717534;82;21165;-42
2021/03/06 01:41:51;;;;;;;2.02;1.30;;;;;;;-0.47;50.60;100943.38;1723286;82;21173;-44
2021/03/06 01:44:18;;;;;;;3.62;1.57;;;;;;;-0.46;50.55;100950.79;1717661;82;21150;-43
2021/03/06 01:46:46;;;;;;;3.47;1.82;;;;;;;-0.47;50.55;100949.06;1744123;81;21169;-41
2021/03/06 01:49:14;;;;;;;3.22;1.80;;;;;;;-0.46;50.67;100954.72;1740249;81;21177;-41
2021/03/06 01:51:41;;;;;;;3.10;1.55;;;;;;;-0.47;51.06;100956.48;1743728;81;21551;-43
2021/03/06 01:54:10;;;;;;;2.62;1.45;;;;;;;-0.45;51.27;100963.03;1739311;81;21126;-44
2021/03/06 01:56:38;;;;;;;3.75;1.80;;;;;;;-0.45;51.33;100961.28;1737436;81;21169;-44
2021/03/06 01:59:06;;;;;;;3.65;1.67;;;;;;;-0.46;51.04;100968.69;1679315;84;21130;-43
2021/03/06 02:01:33;;;;;;;3.00;1.50;;;;;;;-0.48;49.82;100970.48;1738523;81;21145;-43
2021/03/06 02:04:01;;;;;;;3.75;2.05;;;;;;;-0.50;50.09;100972.22;1743244;81;21142;-42
2021/03/06 02:06:29;;;;;;;4.03;2.37;;;;;;;-0.53;49.78;100978.80;1739173;81;21150;-44
2021/03/06 02:08:58;;;;;;;5.40;2.12;;;;;;;-0.57;49.87;100987.98;1739025;81;21146;-44
2021/03/06 02:11:51;;;;;;;8.15;1.82;;;;;;;-0.60;49.97;100988.88;1740985;81;21597;-44
2021/03/06 02:14:48;;;;;;;3.87;1.65;;;;;;;-0.56;50.08;100996.27;1741202;81;21121;-44
2021/03/06 02:17:44;;;;;;;3.03;1.90;;;;;;;-0.53;49.96;101004.11;1741484;81;21142;-43
2021/03/06 02:20:40;;;;;;;3.12;1.37;;;;;;;-0.51;49.22;100996.67;1744227;81;21164;-45
2021/03/06 02:23:46;;;;;;;3.73;1.80;;;;;;;-0.50;49.65;100999.73;1737949;82;21153;-42
2021/03/06 02:26:29;;;;;;;3.00;1.80;;;;;;;-0.47;49.23;101008.03;1739555;81;21154;-42
2021/03/06 02:29:21;;;;;;;4.03;1.98;;;;;;;-0.51;49.06;101011.53;1742885;81;21098;-41
2021/03/06 02:31:48;;;;;;;4.17;2.17;;;;;;;-0.54;48.42;101014.17;1738982;81;21142;-43
2021/03/06 02:34:18;;;;;;;3.87;2.27;;;;;;;-0.56;48.52;101014.61;1742787;81;21134;-45
2021/03/06 02:36:52;;;;;;;3.70;1.95;;;;;;;-0.54;48.73;101018.09;1742709;81;21166;-46
2021/03/06 02:39:20;;;;;;;3.02;1.47;;;;;;;-0.53;47.83;101020.73;1658249;84;21166;-46
2021/03/06 02:41:48;;;;;;;5.12;1.75;;;;;;;-0.52;47.93;101021.59;1740407;81;21114;-43
2021/03/06 02:44:16;;;;;;;4.85;2.30;;;;;;;-0.51;47.83;101024.63;1720627;81;21509;-44
2021/03/06 02:46:44;;;;;;;5.57;1.60;;;;;;;-0.51;47.43;101021.56;1741636;81;21156;-43
2021/03/06 02:49:11;;;;;;;7.53;1.43;;;;;;;-0.53;46.88;101025.97;1744116;81;21149;-42
2021/03/06 02:51:41;;;;;;;6.20;1.80;;;;;;;-0.55;46.71;101034.27;1741705;81;21129;-41
2021/03/06 02:54:10;;;;;;;7.70;1.57;;;;;;;-0.61;45.66;101035.58;1743396;81;21184;-42
2021/03/06 02:56:38;;;;;;;5.33;2.05;;;;;;;-0.61;45.22;101037.34;1741768;81;21143;-43
2021/03/06 02:59:41;;;;;;;3.87;1.27;;;;;;;-0.62;44.60;101044.78;1699492;82;21129;-43
2021/03/06 03:02:23;;;;;;;5.10;1.30;;;;;;;-0.65;45.24;101041.73;1682188;83;21149;-43
2021/03/06 03:05:12;;;;;;;5.92;1.85;;;;;;;-0.62;45.89;101052.64;1682006;83;21169;-44
2021/03/06 03:08:09;;;;;;;3.17;1.50;;;;;;;-0.66;44.77;101049.14;1679818;83;21172;-40
2021/03/06 03:10:39;;;;;;;3.90;1.37;;;;;;;-0.71;44.90;101055.70;1681494;83;21137;-43
2021/03/06 03:13:45;;;;;;;5.28;2.12;;;;;;;-0.72;45.43;101056.59;1783473;78;39249;-42
2021/03/06 03:16:17;;;;;;;2.40;1.10;;;;;;;-0.81;45.71;101064.46;1787866;79;21141;-44
2021/03/06 03:18:58;;;;;;;2.13;0.80;;;;;;;-0.79;45.30;101069.27;1782898;79;21121;-42
2021/03/06 03:21:28;;;;;;;2.60;1.42;;;;;;;-0.83;45.42;101069.27;1742562;80;21137;-41
2021/03/06 03:24:04;;;;;;;1.92;1.20;;;;;;;-0.90;45.53;101073.23;1693948;83;21152;-43
2021/03/06 03:26:31;;;;;;;4.55;0.90;;;;;;;-0.92;44.96;101073.66;1679251;83;21156;-43
2021/03/06 03:28:59;;;;;;;5.75;1.60;;;;;;;-0.96;44.29;101075.88;1679797;84;21192;-42
2021/03/06 03:31:26;;;;;;;5.92;1.40;;;;;;;-0.97;43.82;101078.48;1712953;81;21201;-41
2021/03/06 03:33:54;;;;;;;2.58;1.30;;;;;;;-1.00;43.91;101081.98;1675503;84;21367;-42
2021/03/06 03:36:23;;;;;;;3.90;1.63;;;;;;;-1.02;43.99;101085.03;1704781;82;21159;-42
2021/03/06 03:38:51;;;;;;;4.40;1.23;;;;;;;-1.01;44.21;101079.34;1681119;83;21154;-41
2021/03/06 03:41:19;;;;;;;2.50;0.90;;;;;;;-1.00;44.65;101082.42;1695867;82;21201;-42
2021/03/06 03:43:46;;;;;;;2.97;1.13;;;;;;;-0.96;44.56;101076.28;1684672;83;21184;-42
2021/03/06 03:46:14;;;;;;;4.10;1.40;;;;;;;-0.93;44.71;101081.09;1682677;83;21334;-42
2021/03/06 03:48:44;;;;;;;3.50;1.40;;;;;;;-0.92;44.47;101077.59;1711496;82;21173;-41
2021/03/06 03:51:12;;;;;;;4.90;1.35;;;;;;;-0.92;44.95;101087.20;1662214;83;21193;-42
2021/03/06 03:53:40;;;;;;;4.47;1.73;;;;;;;-0.97;44.61;101091.58;1677258;83;21169;-42
2021/03/06 03:56:10;;;;;;;3.10;1.60;;;;;;;-1.06;44.40;101086.34;1690610;83;21117;-48
2021/03/06 03:58:37;;;;;;;2.85;1.55;;;;;;;-1.13;45.07;101081.13;1684200;84;21162;-41
2021/03/06 04:01:05;;;;;;;2.50;1.00;;;;;;;-1.19;45.12;101083.72;1695972;82;21170;-44
2021/03/06 04:03:33;;;;;;;2.70;1.50;;;;;;;-1.21;45.57;101087.22;1684732;83;21154;-44
2021/03/06 04:06:01;;;;;;;4.53;1.90;;;;;;;-1.26;45.99;101083.32;1690619;82;21467;-44
2021/03/06 04:08:30;;;;;;;2.23;1.30;;;;;;;-1.31;46.45;101093.78;1698161;82;21161;-49
2021/03/06 04:10:57;;;;;;;2.77;1.50;;;;;;;-1.35;47.01;101089.86;1692253;83;21187;-43
2021/03/06 04:13:25;;;;;;;3.10;1.30;;;;;;;-1.36;47.43;101090.70;1684953;83;21149;-42
2021/03/06 04:15:54;;;;;;;2.87;1.20;;;;;;;-1.38;47.99;101087.24;1714359;81;21201;-42
2021/03/06 04:18:23;;;;;;;2.37;1.40;;;;;;;-1.38;48.62;101097.72;1688584;82;21155;-41
2021/03/06 04:20:50;;;;;;;3.57;1.57;;;;;;;-1.44;49.21;101095.94;1711928;82;21165;-42
2021/03/06 04:23:19;;;;;;;1.73;1.13;;;;;;;-1.45;49.44;101088.11;1689916;82;21153;-40
2021/03/06 04:25:47;;;;;;;1.67;1.00;;;;;;;-1.47;49.41;101091.16;1715632;81;21189;-41
2021/03/06 04:28:14;;;;;;;2.30;1.30;;;;;;;-1.47;49.64;101095.95;1677829;83;21158;-41
2021/03/06 04:30:42;;;;;;;2.20;1.03;;;;;;;-1.47;49.30;101099.88;1710902;81;21181;-42
2021/03/06 04:33:10;;;;;;;3.83;1.20;;;;;;;-1.47;49.46;101099.88;1683835;83;21320;-41
2021/03/06 04:35:38;;;;;;;2.50;1.17;;;;;;;-1.52;50.14;101102.92;1694215;83;21354;-41
2021/03/06 04:38:08;;;;;;;2.47;1.07;;;;;;;-1.59;50.21;101104.68;1695526;82;21141;-41
2021/03/06 04:40:35;;;;;;;2.77;1.17;;;;;;;-1.58;50.71;101110.34;1684172;82;21183;-40
2021/03/06 04:43:03;;;;;;;2.07;1.10;;;;;;;-1.64;50.78;101112.95;1692901;82;21169;-40
2021/03/06 04:45:31;;;;;;;2.80;1.20;;;;;;;-1.72;50.94;101115.97;1691780;83;21210;-40
2021/03/06 04:47:59;;;;;;;3.03;1.37;;;;;;;-1.74;51.07;101120.32;1705612;81;21153;-41
2021/03/06 04:50:27;;;;;;;1.87;1.00;;;;;;;-1.78;51.43;101118.14;1690325;83;21157;-41
2021/03/06 04:52:55;;;;;;;2.80;1.37;;;;;;;-1.77;51.51;101125.55;1681528;83;21196;-41
2021/03/06 04:55:22;;;;;;;3.30;1.50;;;;;;;-1.71;51.43;101125.99;1678730;84;21189;-43
2021/03/06 04:57:50;;;;;;;2.20;1.10;;;;;;;-1.63;51.54;101125.59;1676245;83;21318;-43
2021/03/06 05:00:18;;;;;;;2.77;1.47;;;;;;;-1.62;51.49;101126.89;1677636;83;21173;-43
2021/03/06 05:02:47;;;;;;;2.47;1.53;;;;;;;-1.62;51.41;101126.89;1698891;83;21682;-42
2021/03/06 05:05:15;;;;;;;2.90;1.10;;;;;;;-1.61;51.30;101130.41;1714228;82;21161;-41
2021/03/06 05:07:42;;;;;;;2.30;1.33;;;;;;;-1.64;51.40;101127.34;1705619;81;21191;-41
2021/03/06 05:10:11;;;;;;;1.93;0.87;;;;;;;-1.63;51.59;101134.75;1715655;81;21182;-41
2021/03/06 05:12:39;;;;;;;2.80;1.30;;;;;;;-1.60;51.69;101134.75;1714077;82;21149;-42
2021/03/06 05:15:08;;;;;;;3.43;1.20;;;;;;;-1.61;51.30;101138.25;1676768;83;21158;-42
2021/03/06 05:17:36;;;;;;;3.03;1.10;;;;;;;-1.64;51.24;101145.66;1681088;83;21176;-42
2021/03/06 05:20:05;;;;;;;1.90;1.10;;;;;;;-1.64;51.22;101148.27;1681686;83;21574;-43
2021/03/06 05:22:33;;;;;;;1.83;0.90;;;;;;;-1.62;51.27;101149.13;1668017;84;21690;-41
2021/03/06 05:25:01;;;;;;;3.87;1.63;;;;;;;-1.62;51.51;101155.66;1675687;84;21192;-43
2021/03/06 05:27:31;;;;;;;2.10;1.10;;;;;;;-1.63;51.41;101160.91;1694082;83;21196;-41
2021/03/06 05:29:59;;;;;;;2.07;0.90;;;;;;;-1.64;51.80;101161.35;1685467;83;21206;-43
2021/03/06 05:32:27;;;;;;;2.37;1.03;;;;;;;-1.61;51.81;101167.02;1673628;84;21198;-43
2021/03/06 05:34:55;;;;;;;2.63;1.27;;;;;;;-1.59;51.60;101170.49;1696246;84;21577;-40
2021/03/06 05:37:23;;;;;;;3.07;1.27;;;;;;;-1.57;51.35;101181.84;1714758;81;21125;-45
2021/03/06 05:39:51;;;;;;;1.67;0.70;;;;;;;-1.50;51.26;101181.43;1681944;83;21221;-39
2021/03/06 05:42:18;;;;;;;6.70;1.63;;;;;;;-1.52;49.21;101180.10;1676821;84;21889;-43
2021/03/06 05:44:46;;;;;;;2.27;1.07;;;;;;;-1.59;49.66;101190.11;1679688;83;21650;-42
2021/03/06 05:47:14;;;;;;;2.10;1.30;;;;;;;-1.64;50.04;101195.77;1675114;83;21187;-42
2021/03/06 05:49:42;;;;;;;3.40;1.70;;;;;;;-1.66;49.46;101190.95;1679204;83;21162;-43
2021/03/06 05:52:10;;;;;;;3.20;1.93;;;;;;;-1.64;49.15;101194.45;1671056;83;21342;-44
2021/03/06 05:54:38;;;;;;;3.20;1.50;;;;;;;-1.60;49.49;101204.94;1677139;83;21171;-43
2021/03/06 05:57:06;;;;;;;3.43;1.50;;;;;;;-1.53;49.30;101210.63;1692530;83;21166;-41
2021/03/06 05:59:33;;;;;;;4.30;1.47;;;;;;;-1.55;48.69;101204.95;1713203;81;21153;-43
2021/03/06 06:02:01;;;;;;;3.73;1.67;;;;;;;-1.58;48.36;101204.95;1651221;83;22477;-45
2021/03/06 06:04:31;;;;;;;3.33;2.08;;;;;;;-1.58;48.24;101218.04;1689988;82;21166;-42
2021/03/06 06:09:49;;;;;;;5.60;1.77;;;;;;;-1.45;47.21;101222.42;1890684;74;23055;-46
2021/03/06 06:12:17;;;;;;;3.53;1.57;;;;;;;-1.44;47.68;101221.55;1796443;78;21176;-45
2021/03/06 06:14:46;;;;;;;3.43;1.93;;;;;;;-1.35;47.64;101231.17;1788470;79;21562;-43
2021/03/06 06:17:14;;;;;;;4.20;1.60;;;;;;;-1.30;46.70;101239.91;1796750;78;21644;-44
2021/03/06 06:19:42;;;;;;;3.30;1.83;;;;;;;-1.27;45.89;101250.37;1811135;77;21129;-42
2021/03/06 06:22:23;;;;;;;4.20;1.70;;;;;;;-1.26;45.38;101248.22;1778125;79;21156;-43
2021/03/06 06:24:52;;;;;;;5.30;1.90;;;;;;;-1.28;45.81;101247.78;1774043;79;21202;-45
2021/03/06 06:27:25;;;;;;;3.83;1.72;;;;;;;-1.27;46.51;101248.20;1807167;77;21232;-45
2021/03/06 06:29:54;;;;;;;3.40;2.03;;;;;;;-1.25;46.99;101251.70;1797039;77;21180;-47
2021/03/06 06:32:26;;;;;;;4.87;1.70;;;;;;;-1.21;47.38;101251.72;1760533;78;21181;-47
2021/03/06 06:35:06;;;;;;;5.07;1.57;;;;;;;-1.15;45.78;101249.55;1770875;79;21108;-46
2021/03/06 06:37:34;;;;;;;4.67;1.60;;;;;;;-1.14;45.45;101256.07;1773344;78;21150;-46
2021/03/06 06:40:21;;;;;;;2.60;1.50;;;;;;;-1.12;45.16;101258.27;1787988;78;21139;-47
2021/03/06 06:42:48;;;;;;;3.70;1.50;;;;;;;-1.11;45.20;101256.10;1766555;78;21157;-46
2021/03/06 06:45:16;;;;;;;3.73;1.17;;;;;;;-1.06;44.60;101263.94;1772031;78;21156;-46
2021/03/06 06:47:45;;;;;;;3.03;1.40;;;;;;;-1.02;44.62;101272.25;1772266;78;22023;-46
2021/03/06 06:50:15;;;;;;;3.50;1.67;;;;;;;-0.95;44.81;101266.59;1777173;79;21813;-46
2021/03/06 06:52:44;;;;;;;3.30;1.37;;;;;;;-0.89;45.21;101270.52;1726984;79;21121;-47
2021/03/06 06:55:12;;;;;;;4.30;1.57;;;;;;;-0.80;44.94;101270.53;1769285;78;21151;-47
2021/03/06 06:57:52;;;;;;;3.80;1.67;;;;;;;-0.73;44.75;101272.29;1774494;78;21121;-46
2021/03/06 07:00:20;;;;;;;2.37;1.40;;;;;;;-0.66;44.07;101265.28;1766043;78;21164;-46
2021/03/06 07:03:01;;;;;;;3.05;1.07;;;;;;;-0.66;42.89;101270.11;1766753;78;21151;-47
2021/03/06 07:05:39;;;;;;;1.98;1.12;;;;;;;-0.70;43.17;101274.03;1766819;78;21160;-48
2021/03/06 07:08:22;;;;;;;2.27;1.00;;;;;;;-0.68;42.74;101267.92;1759135;79;21171;-46
2021/03/06 07:10:50;;;;;;;4.90;1.30;;;;;;;-0.63;43.37;101272.27;1764540;78;21148;-41
2021/03/06 07:13:18;;;;;;;3.43;1.43;;;;;;;-0.58;42.24;101272.73;1776739;78;21186;-47
2021/03/06 07:15:53;;;;;;;4.30;1.37;;;;;;;-0.59;41.65;101271.41;1744375;79;21686;-46
2021/03/06 07:18:21;;;;;;;6.93;1.83;;;;;;;-0.62;41.61;101274.91;1768907;78;22113;-46
2021/03/06 07:20:51;;;;;;;3.03;1.23;;;;;;;-0.60;42.27;101277.09;1775648;79;21254;-49
2021/03/06 07:23:27;;;;;;;3.80;1.97;;;;;;;-0.54;41.68;101280.14;1767358;79;21162;-47
2021/03/06 07:25:56;;;;;;;2.20;1.37;;;;;;;-0.52;40.00;101275.78;1762347;78;21157;-43
2021/03/06 07:28:24;;;;;;;5.13;1.93;;;;;;;-0.50;39.91;101272.28;1760330;80;21661;-44
2021/03/06 07:30:59;;;;;;;3.40;1.23;;;;;;;-0.47;39.76;101269.66;1798603;78;21663;-45
2021/03/06 07:33:27;;;;;;;2.97;1.07;;;;;;;-0.40;39.71;101275.78;1798543;78;21667;-45
2021/03/06 07:35:55;;;;;;;4.47;2.07;;;;;;;-0.31;39.90;101273.57;1790497;77;21601;-44
2021/03/06 07:38:23;;;;;;;2.07;1.33;;;;;;;-0.21;39.72;101277.92;1770237;80;21149;-46
2021/03/06 07:40:55;;;;;;;3.93;1.50;;;;;;;-0.17;38.74;101276.19;1770431;78;21153;-47
2021/03/06 07:43:28;;;;;;;2.87;1.40;;;;;;;-0.19;38.56;101281.42;1764386;80;21258;-44
2021/03/06 07:45:58;;;;;;;3.73;1.33;;;;;;;-0.23;38.16;101284.91;1756095;79;21159;-45
2021/03/06 07:48:42;;;;;;;3.80;2.20;;;;;;;-0.23;39.68;101284.91;1752201;79;21688;-45
2021/03/06 07:51:10;;;;;;;3.57;1.70;;;;;;;-0.16;38.04;101283.16;1762988;79;21149;-45
2021/03/06 07:53:38;;;;;;;4.53;1.50;;;;;;;-0.09;38.26;101288.84;1797253;78;21149;-46
2021/03/06 07:56:06;;;;;;;4.67;2.10;;;;;;;-0.04;38.23;101284.02;1777518;79;21117;-47
2021/03/06 07:58:51;;;;;;;4.15;1.35;;;;;;;0.06;38.90;101291.88;1774042;78;21661;-43
2021/03/06 08:01:30;;;;;;;3.90;1.90;;;;;;;0.10;37.30;101287.93;1776226;78;21184;-44
2021/03/06 08:04:03;;;;;;;5.08;1.45;;;;;;;0.14;37.04;101289.64;1761978;78;21563;-44
2021/03/06 08:06:31;;;;;;;3.08;1.37;;;;;;;0.21;37.98;101289.20;1773970;79;21137;-44
2021/03/06 08:09:12;;;;;;;4.40;1.77;;;;;;;0.32;37.63;101291.34;1758428;80;21109;-45
2021/03/06 08:11:43;;;;;;;10.03;3.00;;;;;;;0.39;37.06;101293.51;1774426;79;21176;-42
2021/03/06 08:14:32;;;;;;;6.40;1.77;;;;;;;0.44;37.26;101293.05;1760441;80;21914;-44
2021/03/06 08:17:00;;;;;;;5.40;1.97;;;;;;;0.44;37.05;101287.80;1795636;78;21132;-44
2021/03/06 08:19:29;;;;;;;23.63;13.83;;;;;;;0.48;35.85;101292.17;1757955;80;21584;-45
2021/03/06 08:22:01;;;;;;;4.87;1.77;;;;;;;0.54;35.39;101290.82;1776355;78;21365;-43
2021/03/06 08:24:28;;;;;;;3.98;1.30;;;;;;;0.57;33.24;101304.37;1747855;80;21131;-45
2021/03/06 08:27:08;;;;;;;5.72;2.92;;;;;;;0.55;34.12;101291.69;1776525;79;21193;-45
2021/03/06 08:29:38;;;;;;;4.22;1.50;;;;;;;0.58;35.33;101289.94;1796865;78;21137;-46
2021/03/06 08:32:17;;;;;;;3.20;1.50;;;;;;;0.69;34.49;101296.44;1795564;77;21093;-45
2021/03/06 08:34:58;;;;;;;2.80;1.20;;;;;;;0.74;33.85;101301.67;1800247;78;21149;-46
2021/03/06 08:37:29;;;;;;;5.65;1.17;;;;;;;0.76;35.34;101296.84;1769317;80;21176;-45
2021/03/06 08:40:11;;;;;;;3.35;1.35;;;;;;;0.87;35.28;101290.22;1805195;78;21117;-41
2021/03/06 08:42:43;;;;;;;4.20;1.22;;;;;;;0.97;35.44;101298.92;1794199;78;21512;-43
2021/03/06 08:45:23;;;;;;;6.25;2.40;;;;;;;0.95;33.88;101295.42;1800035;78;21149;-44
2021/03/06 08:48:02;;;;;;;3.87;1.62;;;;;;;0.95;34.58;101296.28;1792754;77;21136;-44
2021/03/06 08:50:33;;;;;;;5.37;1.87;;;;;;;0.98;35.14;101299.34;1795791;78;21157;-43
2021/03/06 08:53:08;;;;;;;2.40;1.30;;;;;;;1.09;34.31;101296.22;1792181;78;21246;-44
2021/03/06 08:55:39;;;;;;;4.70;1.57;;;;;;;1.14;34.79;101294.43;1794587;78;21407;-44
2021/03/06 08:58:13;;;;;;;3.90;2.05;;;;;;;1.18;34.15;101295.27;1786153;78;21137;-46
2021/03/06 09:00:54;;;;;;;3.72;1.70;;;;;;;1.20;33.86;101286.48;1750698;79;21149;-46
2021/03/06 09:03:25;;;;;;;3.05;1.50;;;;;;;1.25;34.30;101283.84;1752251;79;21113;-45
2021/03/06 09:05:58;;;;;;;8.35;2.47;;;;;;;1.28;33.31;101287.75;1760437;79;21370;-44
2021/03/06 09:08:28;;;;;;;13.10;3.70;;;;;;;1.29;34.72;101281.18;1750583;79;21114;-44
2021/03/06 09:10:58;;;;;;;5.42;2.42;;;;;;;1.40;35.20;101279.77;1755522;79;21186;-44
2021/03/06 09:13:30;;;;;;;9.03;3.27;;;;;;;1.51;34.56;101280.57;1770960;78;21177;-45
2021/03/06 09:16:01;;;;;;;3.77;1.42;;;;;;;1.61;34.64;101281.78;1747225;80;21156;-44
2021/03/06 09:18:31;;;;;;;5.15;2.90;;;;;;;1.69;34.00;101281.30;1757354;79;21172;-44
2021/03/06 09:21:02;;;;;;;5.05;2.27;;;;;;;1.73;33.62;101281.67;1772738;78;21545;-45
2021/03/06 09:23:38;;;;;;;3.52;1.40;;;;;;;1.80;34.58;101277.24;1770551;78;21163;-45
2021/03/06 09:26:16;;;;;;;2.02;0.93;;;;;;;1.87;32.35;101286.82;1763245;79;21785;-44
2021/03/06 09:28:52;;;;;;;3.35;1.40;;;;;;;1.84;31.03;101281.56;1757523;79;21615;-42
2021/03/06 09:31:27;;;;;;;2.35;1.07;;;;;;;1.82;32.12;101289.94;1774645;78;21166;-43
2021/03/06 09:33:56;;;;;;;2.25;1.22;;;;;;;1.82;30.31;101287.31;1766858;78;21145;-44
2021/03/06 09:36:29;;;;;;;1.85;0.98;;;;;;;1.75;31.29;101284.30;1777173;78;21432;-46
2021/03/06 09:39:02;;;;;;;3.10;1.25;;;;;;;1.71;31.71;101288.70;1771634;78;21165;-46
2021/03/06 09:41:38;;;;;;;1.75;0.75;;;;;;;1.73;31.50;101290.44;1769385;78;21163;-43
2021/03/06 09:44:06;;;;;;;3.35;1.45;;;;;;;1.79;31.37;101282.95;1771447;79;21149;-44
2021/03/06 09:46:35;;;;;;;2.47;0.80;;;;;;;1.85;31.29;101293.85;1771927;78;21695;-46
2021/03/06 09:49:14;;;;;;;2.42;1.12;;;;;;;1.84;30.53;101282.88;1761358;78;21156;-46
2021/03/06 09:51:51;;;;;;;2.87;1.22;;;;;;;1.85;32.09;101280.25;1769717;78;21155;-42
2021/03/06 09:54:21;;;;;;;9.03;1.72;;;;;;;1.92;31.75;101284.56;1777988;78;21161;-44
2021/03/06 09:56:53;;;;;;;;;;;;;;;1.97;32.02;101281.89;1776764;78;21734;-42
2021/03/06 09:59:22;;;;;;;2.60;1.50;;;;;;;2.05;31.56;101280.50;1773837;78;20171;-47
2021/03/06 10:01:50;;;;;;;2.20;1.37;;;;;;;2.14;31.98;101282.59;1786422;78;21181;-43
2021/03/06 10:04:23;;;;;;;1.82;1.07;;;;;;;2.25;32.51;101282.91;1767436;78;21188;-45
2021/03/06 10:06:56;;;;;;;2.12;0.90;;;;;;;2.33;32.32;101267.89;1768174;78;21187;-45
2021/03/06 10:09:24;;;;;;;3.55;1.35;;;;;;;2.42;31.72;101273.47;1768173;78;21607;-44
2021/03/06 10:11:56;;;;;;;6.05;1.10;;;;;;;2.49;32.17;101269.42;1777670;78;21120;-44
2021/03/06 10:14:25;;;;;;;3.05;1.20;;;;;;;2.53;31.06;101268.51;1757710;78;21279;-46
2021/03/06 10:16:56;;;;;;;2.30;0.95;;;;;;;2.48;30.17;101268.15;1766984;78;21171;-46
2021/03/06 10:19:28;;;;;;;1.40;0.70;;;;;;;2.35;30.39;101268.30;1765891;78;21148;-48
2021/03/06 10:22:09;;;;;;;;;;;;;;;2.28;30.96;101260.04;1778261;78;21206;-50
2021/03/06 10:25:02;;;;;;;1.45;0.75;;;;;;;2.29;30.36;101263.12;1760472;78;20199;-47
2021/03/06 10:27:44;;;;;;;3.05;0.90;;;;;;;2.33;31.80;101258.22;1755449;79;22195;-46
2021/03/06 10:30:26;;;;;;;2.27;1.02;;;;;;;2.38;31.31;101260.35;1771710;78;21153;-47
2021/03/06 10:33:02;;;;;;;2.47;1.25;;;;;;;2.48;31.09;101249.27;1774564;78;21196;-45
2021/03/06 10:35:51;;;;;;;3.10;0.88;;;;;;;2.54;31.41;101258.84;1767607;78;21479;-45
2021/03/06 10:38:31;;;;;;;1.92;1.45;;;;;;;2.57;30.65;101250.89;1769674;78;21132;-46
2021/03/06 10:41:03;;;;;;;2.22;0.90;;;;;;;2.57;31.21;101243.89;1755159;79;21619;-46
2021/03/06 10:43:40;;;;;;;5.12;1.10;;;;;;;2.64;30.93;101255.19;1771450;78;21137;-46
2021/03/06 10:46:15;;;;;;;3.22;1.05;;;;;;;2.66;31.00;101250.78;1774801;79;21794;-44
2021/03/06 10:48:45;;;;;;;2.35;0.80;;;;;;;2.72;31.56;101239.28;1795017;78;21153;-44
2021/03/06 10:51:13;;;;;;;4.20;1.00;;;;;;;2.77;31.73;101242.30;1763636;79;21156;-44
2021/03/06 10:53:40;;;;;;;2.47;1.10;;;;;;;2.81;30.66;101235.20;1778240;78;21608;-45
2021/03/06 10:56:19;;;;;;;3.87;0.85;;;;;;;2.79;31.16;101239.63;1776703;79;21153;-44
2021/03/06 10:58:47;;;;;;;1.27;0.88;;;;;;;2.78;31.41;101240.53;1765690;78;21568;-45
2021/03/06 11:01:17;;;;;;;4.17;1.35;;;;;;;2.84;31.64;101229.02;1772708;78;21144;-43
2021/03/06 11:03:47;;;;;;;1.77;0.90;;;;;;;2.93;31.15;101235.48;1776101;78;21556;-43
2021/03/06 11:06:14;;;;;;;1.95;0.90;;;;;;;3.00;31.70;101243.73;1779838;78;21147;-42
2021/03/06 11:08:42;;;;;;;2.27;1.20;;;;;;;3.08;31.02;101238.34;1780299;78;21183;-43
2021/03/06 11:11:10;;;;;;;5.35;1.35;;;;;;;3.13;31.16;101236.05;1764956;79;21199;-42
2021/03/06 11:13:43;;;;;;;2.47;1.45;;;;;;;3.11;30.83;101230.37;1776991;79;21128;-42
2021/03/06 11:16:12;;;;;;;2.08;1.17;;;;;;;3.11;31.31;101231.23;1777584;78;21125;-45
2021/03/06 11:18:41;;;;;;;2.30;1.25;;;;;;;3.13;31.16;101219.36;1774576;79;21150;-47
2021/03/06 11:21:11;;;;;;;1.85;1.10;;;;;;;3.14;31.29;101231.18;1771946;79;21679;-44
2021/03/06 11:23:39;;;;;;;2.30;1.20;;;;;;;3.12;31.50;101222.42;1758111;78;21140;-43
2021/03/06 11:26:07;;;;;;;3.40;1.20;;;;;;;3.14;31.52;101221.09;1754068;80;21699;-42
2021/03/06 11:28:35;;;;;;;1.55;0.90;;;;;;;3.13;31.58;101216.27;1768446;79;21541;-44
2021/03/06 11:31:04;;;;;;;2.12;1.02;;;;;;;3.12;31.43;101226.83;1767932;79;21191;-45
2021/03/06 11:33:32;;;;;;;3.08;1.00;;;;;;;3.07;31.73;101222.08;1761316;79;21428;-45
2021/03/06 11:35:59;;;;;;;2.90;1.10;;;;;;;3.07;32.66;101213.72;1762397;80;21688;-45
2021/03/06 11:38:27;;;;;;;1.80;0.95;;;;;;;3.08;31.78;101217.25;1752967;79;21507;-45
2021/03/06 11:40:55;;;;;;;2.25;1.07;;;;;;;2.98;31.83;101213.89;1769528;79;21133;-46
2021/03/06 11:43:23;;;;;;;1.77;1.00;;;;;;;2.81;31.74;101216.31;1771866;79;21532;-43
2021/03/06 11:45:51;;;;;;;3.20;0.80;;;;;;;2.68;32.38;101216.08;1765036;79;22048;-46
2021/03/06 11:48:19;;;;;;;4.35;1.35;;;;;;;2.62;33.35;101210.91;1770618;79;21181;-46
2021/03/06 11:50:49;;;;;;;2.27;1.02;;;;;;;2.59;33.11;101211.79;1783355;78;21161;-43